Latest Weather Observations for Little Bay

IDN60901

Issued at 4:05 am EST Saturday 30 August 2014 (issued every 10 minutes, with the page automatically refreshed every 10 minutes)

About weather observations | Map of Sydney area stations | Latest observations for Sydney area | Other Formats
Station Details ID: 066051 Name: LITTLE BAY (THE COAST GOLF CLUB) Lat: -33.98 Lon: 151.25 Height: 22.0 m
Data from the previous 72 hours. | See also: Recent months for locations in New South Wales
Date/Time
EST
Tmp

°C
App
Tmp
°C
Dew
Point
°C
Rel
Hum
%
Delta-T

°C
Wind Press
QNH
hPa
Press
MSL
hPa
Rain
since
9 am
mm
Dir
 
Spd
km/h
Gust
km/h
Spd
kts
Gust
kts
30/04:01am - - - - - SSW 37 57 20 31 - - -
30/04:00am - - - - - SSW 37 54 20 29 - - -
30/03:30am - - - - - SSW 35 56 19 30 - - -
30/03:24am - - - - - SSW 35 56 19 30 - - -
30/03:00am - - - - - SSW 33 48 18 26 - - -
30/02:30am - - - - - SSW 35 50 19 27 - - -
30/02:00am - - - - - S 35 50 19 27 - - -
30/01:45am - - - - - SSW 35 54 19 29 - - -
30/01:30am - - - - - SSW 35 50 19 27 - - -
30/01:00am - - - - - S 41 54 22 29 - - -
30/12:30am - - - - - SSW 33 54 18 29 - - -
30/12:00am - - - - - SSW 33 54 18 29 - - -
 
Date/Time
EST
Tmp

°C
App
Tmp
°C
Dew
Point
°C
Rel
Hum
%
Delta-T

°C
Wind Press
QNH
hPa
Press
MSL
hPa
Rain
since
9 am
mm
Dir
 
Spd
km/h
Gust
km/h
Spd
kts
Gust
kts
29/11:32pm - - - - - SSW 35 56 19 30 - - -
29/11:30pm - - - - - SSW 37 56 20 30 - - -
29/11:22pm - - - - - SSW 32 50 17 27 - - -
29/11:00pm - - - - - SSW 30 46 16 25 - - -
29/10:30pm - - - - - SSW 35 50 19 27 - - -
29/10:00pm - - - - - SSW 35 52 19 28 - - -
29/09:30pm - - - - - SSW 35 52 19 28 - - -
29/09:15pm - - - - - S 39 57 21 31 - - -
29/09:00pm - - - - - S 41 56 22 30 - - -
29/08:30pm - - - - - S 37 57 20 31 - - -
29/08:23pm - - - - - S 37 57 20 31 - - -
29/08:00pm - - - - - S 41 54 22 29 - - -
29/07:30pm - - - - - S 39 56 21 30 - - -
29/07:00pm - - - - - S 44 61 24 33 - - -
29/06:54pm - - - - - S 43 61 23 33 - - -
29/06:30pm - - - - - S 41 54 22 29 - - -
29/06:00pm - - - - - S 41 61 22 33 - - -
29/05:59pm - - - - - S 41 61 22 33 - - -
29/05:30pm - - - - - S 43 57 23 31 - - -
29/05:22pm - - - - - S 35 57 19 31 - - -
29/05:00pm - - - - - S 37 48 20 26 - - -
29/04:30pm - - - - - S 28 41 15 22 - - -
29/04:00pm - - - - - S 35 50 19 27 - - -
29/03:30pm - - - - - SSW 28 41 15 22 - - -
29/03:04pm - - - - - SSW 28 46 15 25 - - -
29/03:00pm - - - - - SSW 24 35 13 19 - - -
29/02:30pm - - - - - SSW 30 41 16 22 - - -
29/02:00pm - - - - - S 28 37 15 20 - - -
29/01:45pm - - - - - SSW 28 54 15 29 - - -
29/01:30pm - - - - - SSW 28 39 15 21 - - -
29/01:00pm - - - - - SSW 24 37 13 20 - - -
29/12:30pm - - - - - SSW 19 28 10 15 - - -
29/12:00pm - - - - - SSW 26 37 14 20 - - -
29/11:30am - - - - - SSW 28 39 15 21 - - -
29/11:00am - - - - - SSW 15 24 8 13 - - -
29/10:30am - - - - - S 28 43 15 23 - - -
29/10:00am - - - - - SSW 20 33 11 18 - - -
29/09:30am - - - - - SSW 30 44 16 24 - - -
29/09:26am - - - - - SSW 33 44 18 24 - - -
29/09:00am - - - - - SW 13 26 7 14 - - -
29/08:30am - - - - - SW 19 30 10 16 - - -
29/08:00am - - - - - SSW 19 33 10 18 - - -
29/07:30am - - - - - SSW 22 32 12 17 - - -
29/07:00am - - - - - WSW 15 22 8 12 - - -
29/06:30am - - - - - WSW 15 22 8 12 - - -
29/06:00am - - - - - WSW 11 20 6 11 - - -
29/05:30am - - - - - SW 19 26 10 14 - - -
29/05:00am - - - - - SSW 17 24 9 13 - - -
29/04:30am - - - - - SSW 19 28 10 15 - - -
29/04:00am - - - - - SW 15 22 8 12 - - -
29/03:30am - - - - - SW 20 33 11 18 - - -
29/03:00am - - - - - S 20 28 11 15 - - -
29/02:30am - - - - - S 20 28 11 15 - - -
29/02:00am - - - - - S 24 33 13 18 - - -
29/01:30am - - - - - SW 13 22 7 12 - - -
29/01:00am - - - - - SSW 15 22 8 12 - - -
29/12:30am - - - - - SW 13 19 7 10 - - -
29/12:00am - - - - - S 13 24 7 13 - - -
 
Date/Time
EST
Tmp

°C
App
Tmp
°C
Dew
Point
°C
Rel
Hum
%
Delta-T

°C
Wind Press
QNH
hPa
Press
MSL
hPa
Rain
since
9 am
mm
Dir
 
Spd
km/h
Gust
km/h
Spd
kts
Gust
kts
28/11:30pm - - - - - SSW 9 13 5 7 - - -
28/11:00pm - - - - - SW 13 22 7 12 - - -
28/10:30pm - - - - - S 20 32 11 17 - - -
28/10:00pm - - - - - S 19 28 10 15 - - -
28/09:30pm - - - - - SSE 20 30 11 16 - - -
28/09:00pm - - - - - SSE 22 32 12 17 - - -
28/08:30pm - - - - - SSE 22 30 12 16 - - -
28/08:00pm - - - - - S 19 26 10 14 - - -
28/07:30pm - - - - - S 20 30 11 16 - - -
28/07:00pm - - - - - SSE 20 28 11 15 - - -
28/06:30pm - - - - - S 22 32 12 17 - - -
28/06:00pm - - - - - S 22 32 12 17 - - -
28/05:30pm - - - - - SSE 24 33 13 18 - - -
28/05:00pm - - - - - SSE 24 32 13 17 - - -
28/04:30pm - - - - - SSE 24 33 13 18 - - -
28/04:00pm - - - - - SSE 26 37 14 20 - - -
28/03:30pm - - - - - SSE 28 35 15 19 - - -
28/03:00pm - - - - - SSE 28 37 15 20 - - -
28/02:30pm - - - - - SSE 26 37 14 20 - - -
28/02:00pm - - - - - SSE 28 35 15 19 - - -
28/01:30pm - - - - - SSE 28 37 15 20 - - -
28/01:00pm - - - - - SSE 28 37 15 20 - - -
28/12:30pm - - - - - SSE 26 37 14 20 - - -
28/12:00pm - - - - - SSE 24 33 13 18 - - -
28/11:30am - - - - - SSE 26 33 14 18 - - -
28/11:00am - - - - - SE 28 35 15 19 - - -
28/10:30am - - - - - SSE 28 37 15 20 - - -
28/10:00am - - - - - SSE 32 39 17 21 - - -
28/09:30am - - - - - SSE 28 37 15 20 - - -
28/09:00am - - - - - SSE 26 33 14 18 - - -
28/08:30am - - - - - SE 24 32 13 17 - - -
28/08:00am - - - - - SE 32 39 17 21 - - -
28/07:30am - - - - - S 22 35 12 19 - - -
28/07:00am - - - - - SSE 30 46 16 25 - - -
28/06:59am - - - - - SSE 28 46 15 25 - - -
28/06:30am - - - - - S 32 41 17 22 - - -
28/06:00am - - - - - SSE 22 37 12 20 - - -
28/05:30am - - - - - SSE 28 37 15 20 - - -
28/05:00am - - - - - S 22 32 12 17 - - -
28/04:30am - - - - - S 24 32 13 17 - - -
28/04:00am - - - - - ESE 26 37 14 20 - - -
28/03:30am - - - - - SSE 20 32 11 17 - - -
28/03:00am - - - - - S 28 37 15 20 - - -
28/02:30am - - - - - S 30 41 16 22 - - -
28/02:00am - - - - - S 28 37 15 20 - - -
28/01:30am - - - - - SSE 28 35 15 19 - - -
28/01:00am - - - - - S 28 39 15 21 - - -
28/12:30am - - - - - SSE 35 44 19 24 - - -
28/12:00am - - - - - S 26 37 14 20 - - -
 
Date/Time
EST
Tmp

°C
App
Tmp
°C
Dew
Point
°C
Rel
Hum
%
Delta-T

°C
Wind Press
QNH
hPa
Press
MSL
hPa
Rain
since
9 am
mm
Dir
 
Spd
km/h
Gust
km/h
Spd
kts
Gust
kts
27/11:30pm - - - - - SSE 30 37 16 20 - - -
27/11:00pm - - - - - S 30 41 16 22 - - -
27/10:30pm - - - - - S 33 43 18 23 - - -
27/10:00pm - - - - - SSE 32 43 17 23 - - -
27/09:30pm - - - - - S 26 41 14 22 - - -
27/09:00pm - - - - - S 26 37 14 20 - - -
27/08:30pm - - - - - S 24 35 13 19 - - -
27/08:00pm - - - - - S 28 37 15 20 - - -
27/07:30pm - - - - - S 30 39 16 21 - - -
27/07:00pm - - - - - SSE 32 44 17 24 - - -
27/06:30pm - - - - - SSE 33 44 18 24 - - -
27/06:00pm - - - - - SSE 33 46 18 25 - - -
27/05:30pm - - - - - SSE 37 48 20 26 - - -
27/05:00pm - - - - - SSE 30 44 16 24 - - -
27/04:30pm - - - - - SSE 32 43 17 23 - - -
27/04:00pm - - - - - SE 35 44 19 24 - - -
27/03:30pm - - - - - SSE 33 44 18 24 - - -
27/03:00pm - - - - - SSE 35 43 19 23 - - -
27/02:30pm - - - - - SE 35 43 19 23 - - -
27/02:00pm - - - - - SE 33 44 18 24 - - -
27/01:30pm - - - - - SE 33 39 18 21 - - -
27/01:00pm - - - - - SSE 28 39 15 21 - - -
27/12:30pm - - - - - SSE 28 39 15 21 - - -
27/12:00pm - - - - - SSE 26 35 14 19 - - -
27/11:30am - - - - - S 30 44 16 24 - - -
27/11:00am - - - - - SSE 30 39 16 21 - - -
27/10:30am - - - - - SSE 32 41 17 22 - - -
27/10:00am - - - - - SSE 32 43 17 23 - - -
27/09:30am - - - - - SSE 32 41 17 22 - - -
27/09:00am - - - - - SSE 35 46 19 25 - - -
27/08:30am - - - - - SSE 33 44 18 24 - - -
27/08:23am - - - - - SSE 37 48 20 26 - - -
27/08:00am - - - - - ESE 24 33 13 18 - - -
27/07:30am - - - - - ESE 26 46 14 25 - - -
27/07:00am - - - - - SSE 30 37 16 20 - - -
27/06:30am - - - - - SSE 35 50 19 27 - - -
27/06:00am - - - - - SE 32 39 17 21 - - -
27/05:30am - - - - - S 26 33 14 18 - - -
27/05:00am - - - - - SSE 32 43 17 23 - - -
27/04:30am - - - - - SSE 32 43 17 23 - - -

Latest Capital City Observations: Canberra | Sydney | Melbourne | Brisbane | Adelaide | Perth | Hobart | Darwin

Other Formats:

Comma delimited format used in spreadsheet applications
http://www.bom.gov.au/fwo/IDN60901/IDN60901.94780.axf

JavaScript Object Notation format (JSON) in row-major order
http://www.bom.gov.au/fwo/IDN60901/IDN60901.94780.json